createdAt,value
2023-03-25T00:01:42.420Z,53.71
2023-03-25T00:04:09.936Z,53.74
2023-03-25T00:06:37.568Z,53.73
2023-03-25T00:09:05.078Z,53.08
2023-03-25T00:11:32.738Z,53.36
2023-03-25T00:14:00.445Z,52.88
2023-03-25T00:16:27.999Z,53.09
2023-03-25T00:18:55.660Z,53.46
2023-03-25T00:21:23.385Z,52.94
2023-03-25T00:23:51.075Z,52.47
2023-03-25T00:26:18.641Z,52.71
2023-03-25T00:28:46.423Z,52.46
2023-03-25T00:31:14.989Z,52.61
2023-03-25T00:33:42.889Z,52.24
2023-03-25T00:36:14.407Z,52.04
2023-03-25T00:38:43.374Z,52.21
2023-03-25T00:41:35.850Z,52.06
2023-03-25T00:44:04.552Z,51.79
2023-03-25T00:46:34.005Z,51.71
2023-03-25T00:49:01.715Z,51.59
2023-03-25T00:51:31.429Z,51.99
2023-03-25T00:54:03.473Z,51.83
2023-03-25T00:56:31.471Z,52.02
2023-03-25T00:58:59.076Z,51.88
2023-03-25T01:01:29.092Z,52.02
2023-03-25T01:04:00.175Z,51.82
2023-03-25T01:06:35.979Z,51.69
2023-03-25T01:09:07.712Z,51.69
2023-03-25T01:11:38.272Z,51.94
2023-03-25T01:14:11.284Z,51.51
2023-03-25T01:16:40.109Z,51.44
2023-03-25T01:19:07.636Z,51.80
2023-03-25T01:21:36.664Z,51.43
2023-03-25T01:24:06.009Z,51.27
2023-03-25T01:26:33.844Z,51.41
2023-03-25T01:29:02.126Z,51.00
2023-03-25T01:31:31.692Z,51.08
2023-03-25T01:34:00.579Z,50.67
2023-03-25T01:36:31.536Z,50.54
2023-03-25T01:39:01.320Z,50.91
2023-03-25T01:41:42.257Z,50.47
2023-03-25T01:44:14.205Z,50.10
2023-03-25T01:46:49.096Z,50.17
2023-03-25T01:49:31.195Z,50.16
2023-03-25T01:52:05.472Z,50.30
2023-03-25T01:54:34.216Z,50.08
2023-03-25T01:57:02.936Z,50.25
2023-03-25T01:59:30.879Z,50.35
2023-03-25T02:02:03.910Z,50.63
2023-03-25T02:04:59.666Z,50.20
2023-03-25T02:07:30.990Z,50.28
2023-03-25T02:10:06.707Z,50.06
2023-03-25T02:12:34.279Z,49.97
2023-03-25T02:15:06.159Z,50.09
2023-03-25T02:17:47.657Z,49.76
2023-03-25T02:20:30.276Z,50.23
2023-03-25T02:23:28.310Z,51.50
2023-03-25T02:26:22.088Z,55.10
2023-03-25T02:29:23.910Z,57.49
2023-03-25T02:32:12.221Z,57.66
2023-03-25T02:35:08.244Z,59.65
2023-03-25T02:38:34.148Z,62.01
2023-03-25T02:41:25.788Z,60.83
2023-03-25T02:44:21.747Z,61.36
2023-03-25T02:46:55.894Z,61.72
2023-03-25T02:49:36.193Z,61.64
2023-03-25T02:52:31.983Z,61.59
2023-03-25T02:55:04.961Z,60.73
2023-03-25T02:57:35.339Z,61.51
2023-03-25T03:00:15.784Z,60.20
2023-03-25T03:03:04.803Z,60.16
2023-03-25T03:05:43.726Z,60.86
2023-03-25T03:08:50.860Z,60.36
2023-03-25T03:11:31.134Z,60.37
2023-03-25T03:14:19.356Z,61.05
2023-03-25T03:17:08.955Z,60.13
2023-03-25T03:19:48.113Z,59.71
2023-03-25T03:23:02.024Z,60.21
2023-03-25T03:25:40.297Z,60.19
2023-03-25T03:28:22.506Z,60.04
2023-03-25T03:31:00.452Z,59.93
2023-03-25T03:33:53.355Z,59.60
2023-03-25T03:36:27.573Z,59.44
2023-03-25T03:39:10.864Z,59.61
2023-03-25T03:41:42.461Z,59.72
2023-03-25T03:44:18.538Z,59.71
2023-03-25T03:47:28.517Z,59.85
2023-03-25T03:50:04.214Z,59.27
2023-03-25T03:53:07.678Z,58.87
2023-03-25T03:55:47.163Z,58.45
2023-03-25T03:58:29.901Z,58.33
2023-03-25T04:01:30.306Z,58.46
2023-03-25T04:04:07.560Z,58.10
2023-03-25T04:06:42.025Z,57.79
2023-03-25T04:09:40.929Z,57.33
2023-03-25T04:12:23.777Z,57.53
2023-03-25T04:14:51.303Z,56.96
2023-03-25T04:17:18.963Z,57.27
2023-03-25T04:19:48.868Z,56.68
2023-03-25T04:22:18.445Z,56.29
2023-03-25T04:24:49.601Z,56.52
2023-03-25T04:27:23.031Z,56.26
2023-03-25T04:29:51.975Z,56.39
2023-03-25T04:32:19.515Z,55.64
2023-03-25T04:34:47.072Z,56.00
2023-03-25T04:37:14.744Z,56.02
2023-03-25T04:39:42.290Z,56.20
2023-03-25T04:42:13.631Z,55.97
2023-03-25T04:44:41.180Z,55.65
2023-03-25T04:47:14.822Z,55.47
2023-03-25T04:49:44.927Z,55.51
2023-03-25T04:52:12.509Z,55.59
2023-03-25T04:54:40.692Z,55.23
2023-03-25T04:57:11.423Z,55.14
2023-03-25T04:59:39.075Z,55.38
2023-03-25T05:02:13.401Z,55.61
2023-03-25T05:04:47.286Z,54.82
2023-03-25T05:07:16.456Z,55.31
2023-03-25T05:09:44.158Z,54.99
2023-03-25T05:12:11.845Z,54.95
2023-03-25T05:14:39.858Z,54.77
2023-03-25T05:17:07.358Z,54.85
2023-03-25T05:22:37.800Z,54.53
2023-03-25T05:25:07.958Z,54.33
2023-03-25T05:27:36.638Z,53.63
2023-03-25T05:30:06.535Z,53.85
2023-03-25T05:32:34.364Z,53.85
2023-03-25T05:35:04.227Z,53.29
2023-03-25T05:37:31.786Z,53.29
2023-03-25T05:39:59.428Z,53.15
2023-03-25T05:42:27.301Z,53.16
2023-03-25T05:44:54.957Z,53.26
2023-03-25T05:47:25.021Z,53.04
2023-03-25T05:49:53.967Z,52.69
2023-03-25T05:52:24.636Z,52.35
2023-03-25T05:54:52.424Z,52.78
2023-03-25T05:57:19.949Z,52.50
2023-03-25T05:59:48.076Z,52.24
2023-03-25T06:02:17.237Z,52.22
2023-03-25T06:04:46.508Z,51.82
2023-03-25T06:07:19.729Z,51.73
2023-03-25T06:09:48.146Z,52.10
2023-03-25T06:12:19.941Z,52.12
2023-03-25T06:14:53.772Z,51.66
2023-03-25T06:17:22.599Z,52.04
2023-03-25T06:19:51.727Z,51.59
2023-03-25T06:22:22.422Z,51.49
2023-03-25T06:24:50.089Z,51.88
2023-03-25T06:27:19.412Z,51.70
2023-03-25T06:29:47.768Z,51.56
2023-03-25T06:32:16.134Z,51.86
2023-03-25T06:34:44.519Z,51.67
2023-03-25T06:37:12.089Z,52.04
2023-03-25T06:39:39.657Z,51.51
2023-03-25T06:42:16.064Z,51.96
2023-03-25T06:44:56.209Z,51.66
2023-03-25T06:47:45.344Z,51.69
2023-03-25T06:50:13.008Z,51.47
2023-03-25T06:52:40.609Z,51.85
2023-03-25T06:55:08.679Z,51.59
2023-03-25T06:57:36.225Z,51.72
2023-03-25T07:00:06.805Z,51.93
2023-03-25T07:02:34.829Z,51.51
2023-03-25T07:05:27.771Z,51.91
2023-03-25T07:07:55.869Z,51.74
2023-03-25T07:10:23.491Z,51.03
2023-03-25T07:12:51.086Z,51.46
2023-03-25T07:15:18.680Z,50.95
2023-03-25T07:17:49.375Z,51.32
2023-03-25T07:20:17.340Z,50.58
2023-03-25T07:22:44.959Z,50.13
2023-03-25T07:25:12.488Z,50.23
2023-03-25T07:27:40.830Z,50.12
2023-03-25T07:30:15.744Z,50.03
2023-03-25T07:32:47.055Z,50.24
2023-03-25T07:35:14.664Z,49.81
2023-03-25T07:37:42.185Z,50.18
2023-03-25T07:40:10.371Z,49.66
2023-03-25T07:42:38.408Z,50.11
2023-03-25T07:45:21.223Z,50.17
2023-03-25T07:47:51.569Z,49.57
2023-03-25T07:50:29.811Z,49.56
2023-03-25T07:52:57.406Z,49.22
2023-03-25T07:55:24.959Z,48.94
2023-03-25T07:57:52.487Z,49.15
2023-03-25T08:00:20.559Z,49.40
2023-03-25T08:02:48.125Z,49.27
2023-03-25T08:05:21.272Z,49.60
2023-03-25T08:07:50.363Z,49.22
2023-03-25T08:10:19.301Z,49.44
2023-03-25T08:12:46.992Z,49.02
2023-03-25T08:15:14.830Z,48.93
2023-03-25T08:17:42.350Z,48.97
2023-03-25T08:20:11.342Z,48.72
2023-03-25T08:22:38.898Z,48.24
2023-03-25T08:25:07.961Z,48.35
2023-03-25T08:27:35.542Z,48.22
2023-03-25T08:30:04.980Z,47.77
2023-03-25T08:32:32.517Z,47.53
2023-03-25T08:35:00.377Z,47.96
2023-03-25T08:37:27.985Z,47.89
2023-03-25T08:39:56.073Z,47.41
2023-03-25T08:42:23.619Z,47.45
2023-03-25T08:44:51.315Z,47.18
2023-03-25T08:47:18.884Z,47.69
2023-03-25T08:49:46.437Z,49.14
2023-03-25T08:52:13.981Z,49.09
2023-03-25T08:54:41.506Z,49.51
2023-03-25T08:57:09.101Z,49.43
2023-03-25T08:59:36.697Z,49.88
2023-03-25T09:02:04.402Z,49.65
2023-03-25T09:04:31.914Z,50.22
2023-03-25T09:07:11.970Z,50.61
2023-03-25T09:09:43.096Z,50.60
2023-03-25T09:12:10.840Z,50.52
2023-03-25T09:14:38.507Z,50.42
2023-03-25T09:17:06.320Z,50.28
2023-03-25T09:19:35.332Z,50.25
2023-03-25T09:22:02.976Z,50.09
2023-03-25T09:24:33.913Z,50.56
2023-03-25T09:27:03.010Z,50.32
2023-03-25T09:29:30.742Z,49.93
2023-03-25T09:31:59.687Z,49.66
2023-03-25T09:34:28.560Z,49.56
2023-03-25T09:36:56.423Z,49.79
2023-03-25T09:39:23.992Z,48.75
2023-03-25T09:42:26.851Z,48.60
2023-03-25T09:45:41.845Z,48.33
2023-03-25T09:48:28.626Z,48.08
2023-03-25T09:51:02.693Z,48.25
2023-03-25T09:53:59.374Z,48.77
2023-03-25T09:56:31.236Z,48.72
2023-03-25T09:59:07.415Z,48.29
2023-03-25T10:02:04.543Z,48.24
2023-03-25T10:05:06.389Z,49.03
2023-03-25T10:07:37.151Z,49.75
2023-03-25T10:10:31.614Z,51.88
2023-03-25T10:13:14.995Z,50.67
2023-03-25T10:16:07.152Z,52.04
2023-03-25T10:19:07.915Z,52.61
2023-03-25T10:22:01.222Z,53.06
2023-03-25T10:24:32.877Z,53.51
2023-03-25T10:27:31.446Z,53.26
2023-03-25T10:30:32.816Z,54.13
2023-03-25T10:33:05.875Z,54.24
2023-03-25T10:35:42.653Z,53.61
2023-03-25T10:38:24.175Z,53.75
2023-03-25T10:41:19.878Z,54.16
2023-03-25T10:43:47.484Z,53.80
2023-03-25T10:46:34.430Z,54.37
2023-03-25T10:49:01.932Z,54.06
2023-03-25T10:51:33.952Z,54.99
2023-03-25T10:54:01.669Z,55.28
2023-03-25T10:56:42.767Z,54.80
2023-03-25T10:59:34.712Z,54.62
2023-03-25T11:02:14.027Z,53.77
2023-03-25T11:04:44.264Z,53.11
2023-03-25T11:07:36.075Z,53.01
2023-03-25T11:10:28.373Z,51.26
2023-03-25T11:12:58.724Z,51.27
2023-03-25T11:15:38.067Z,50.44
2023-03-25T11:18:16.108Z,50.25
2023-03-25T11:20:51.437Z,50.32
2023-03-25T11:23:33.971Z,49.75
2023-03-25T11:26:21.599Z,49.21
2023-03-25T11:28:54.135Z,49.09
2023-03-25T11:31:27.701Z,48.92
2023-03-25T11:34:21.079Z,48.38
2023-03-25T11:36:55.103Z,46.56
2023-03-25T11:39:41.080Z,47.25
2023-03-25T11:42:19.318Z,46.88
2023-03-25T11:44:56.134Z,47.27
2023-03-25T11:47:31.891Z,47.32
2023-03-25T11:50:00.971Z,46.88
2023-03-25T11:52:44.370Z,46.59
2023-03-25T11:55:26.599Z,46.47
2023-03-25T11:57:57.508Z,46.59
2023-03-25T12:00:25.068Z,46.70
2023-03-25T12:03:15.928Z,46.88
2023-03-25T12:06:11.855Z,46.42
2023-03-25T12:09:12.924Z,46.16
2023-03-25T12:12:05.977Z,46.19
2023-03-25T12:14:48.801Z,47.15
2023-03-25T12:17:21.969Z,47.00
2023-03-25T12:20:34.300Z,46.69
2023-03-25T12:23:04.548Z,46.70
2023-03-25T12:26:06.673Z,47.40
2023-03-25T12:29:09.241Z,46.05
2023-03-25T12:32:02.009Z,46.83
2023-03-25T12:34:56.678Z,49.01
2023-03-25T12:38:07.709Z,49.65
2023-03-25T12:40:59.700Z,50.01
2023-03-25T12:43:57.890Z,50.32
2023-03-25T12:46:39.286Z,50.22
2023-03-25T12:49:19.065Z,49.70
2023-03-25T12:52:19.940Z,48.19
2023-03-25T12:55:25.539Z,48.37
2023-03-25T12:58:57.137Z,48.22
2023-03-25T13:02:09.851Z,47.51
2023-03-25T13:05:14.550Z,47.13
2023-03-25T13:08:01.133Z,46.09
2023-03-25T13:10:34.791Z,47.16
2023-03-25T13:13:25.711Z,46.80
2023-03-25T13:16:07.979Z,44.84
2023-03-25T13:18:40.667Z,44.97
2023-03-25T13:21:21.529Z,45.14
2023-03-25T13:24:00.054Z,44.60
2023-03-25T13:26:31.106Z,43.67
2023-03-25T13:29:05.473Z,43.45
2023-03-25T13:31:37.397Z,42.79
2023-03-25T13:35:06.181Z,42.82
2023-03-25T13:37:42.202Z,43.03
2023-03-25T13:40:51.297Z,41.11
2023-03-25T13:43:32.064Z,40.15
2023-03-25T13:46:36.928Z,39.49
2023-03-25T13:49:16.922Z,40.47
2023-03-25T13:51:45.498Z,40.43
2023-03-25T13:54:34.744Z,40.78
2023-03-25T13:57:24.409Z,40.35
2023-03-25T14:00:14.499Z,40.18
2023-03-25T14:03:27.349Z,40.78
2023-03-25T14:06:29.468Z,47.18
2023-03-25T14:09:35.264Z,47.38
2023-03-25T14:12:21.271Z,49.85
2023-03-25T14:14:58.270Z,48.41
2023-03-25T14:17:28.342Z,47.93
2023-03-25T14:19:59.498Z,48.18
2023-03-25T14:22:31.890Z,46.85
2023-03-25T14:25:00.845Z,46.60
2023-03-25T14:27:37.505Z,46.45
2023-03-25T14:30:21.456Z,45.78
2023-03-25T14:32:49.772Z,45.74
2023-03-25T14:35:35.089Z,46.07
2023-03-25T14:38:08.624Z,45.65
2023-03-25T14:40:58.946Z,44.18
2023-03-25T14:43:46.707Z,44.63
2023-03-25T14:46:19.285Z,43.92
2023-03-25T14:49:05.679Z,43.70
2023-03-25T14:51:34.903Z,42.97
2023-03-25T14:54:30.329Z,42.63
2023-03-25T14:57:15.933Z,41.69
2023-03-25T15:00:17.371Z,41.81
2023-03-25T15:02:58.451Z,39.54
2023-03-25T15:05:29.668Z,39.94
2023-03-25T15:08:13.998Z,39.56
2023-03-25T15:10:51.062Z,37.95
2023-03-25T15:13:34.595Z,38.64
2023-03-25T15:16:33.173Z,37.72
2023-03-25T15:19:20.675Z,38.24
2023-03-25T15:21:57.195Z,38.74
2023-03-25T15:24:37.937Z,38.04
2023-03-25T15:27:35.778Z,38.19
2023-03-25T15:30:12.646Z,37.56
2023-03-25T15:33:26.330Z,37.97
2023-03-25T15:36:28.012Z,37.83
2023-03-25T15:39:31.930Z,37.44
2023-03-25T15:42:28.962Z,36.37
2023-03-25T15:45:37.830Z,36.56
2023-03-25T15:48:22.712Z,36.88
2023-03-25T15:51:16.516Z,36.86
2023-03-25T15:54:14.252Z,36.47
2023-03-25T15:56:46.853Z,35.61
2023-03-25T15:59:31.717Z,36.38
2023-03-25T16:02:03.222Z,36.08
2023-03-25T16:04:44.177Z,36.52
2023-03-25T16:07:15.483Z,36.15
2023-03-25T16:09:49.109Z,36.16
2023-03-25T16:12:25.669Z,36.32
2023-03-25T16:14:53.275Z,36.28
2023-03-25T16:17:25.445Z,36.13
2023-03-25T16:19:55.909Z,36.66
2023-03-25T16:22:34.651Z,36.92
2023-03-25T16:25:08.094Z,37.20
2023-03-25T16:27:42.247Z,37.35
2023-03-25T16:30:25.323Z,36.90
2023-03-25T16:32:53.527Z,37.71
2023-03-25T16:35:26.705Z,37.47
2023-03-25T16:37:57.962Z,37.74
2023-03-25T16:40:43.360Z,37.72
2023-03-25T16:43:22.046Z,37.26
2023-03-25T16:45:52.948Z,37.03
2023-03-25T16:48:48.985Z,37.61
2023-03-25T16:51:22.845Z,37.67
2023-03-25T16:53:56.099Z,37.63
2023-03-25T16:56:30.860Z,37.88
2023-03-25T16:59:33.393Z,38.10
2023-03-25T17:02:03.387Z,37.84
2023-03-25T17:04:41.870Z,38.04
2023-03-25T17:07:26.606Z,37.94
2023-03-25T17:09:59.665Z,38.21
2023-03-25T17:12:29.119Z,38.29
2023-03-25T17:15:06.797Z,38.59
2023-03-25T17:17:41.520Z,39.09
2023-03-25T17:20:27.367Z,38.53
2023-03-25T17:23:18.018Z,38.79
2023-03-25T17:25:58.489Z,38.73
2023-03-25T17:29:01.864Z,38.93
2023-03-25T17:31:38.164Z,38.81
2023-03-25T17:34:14.657Z,39.01
2023-03-25T17:36:46.909Z,39.27
2023-03-25T17:39:26.224Z,39.19
2023-03-25T17:42:08.205Z,39.23
2023-03-25T17:44:39.301Z,39.23
2023-03-25T17:47:15.698Z,39.46
2023-03-25T17:49:43.506Z,39.45
2023-03-25T17:52:11.294Z,39.54
2023-03-25T17:54:38.776Z,39.57
2023-03-25T17:57:18.305Z,40.04
2023-03-25T17:59:47.133Z,39.87
2023-03-25T18:02:17.044Z,40.11
2023-03-25T18:04:44.777Z,40.00
2023-03-25T18:07:12.331Z,40.23
2023-03-25T18:09:41.283Z,40.07
2023-03-25T18:12:11.016Z,40.26
2023-03-25T18:14:38.585Z,40.17
2023-03-25T18:17:06.294Z,40.46
2023-03-25T18:19:34.484Z,40.46
2023-03-25T18:22:09.960Z,40.54
2023-03-25T18:24:46.909Z,40.56
2023-03-25T18:27:14.713Z,40.81
2023-03-25T18:29:42.293Z,40.95
2023-03-25T18:32:09.945Z,40.75
2023-03-25T18:34:37.473Z,41.02
2023-03-25T18:37:04.969Z,40.93
2023-03-25T18:39:32.663Z,41.04
2023-03-25T18:42:00.516Z,41.00
2023-03-25T18:44:30.542Z,40.82
2023-03-25T18:46:58.204Z,40.81
2023-03-25T18:49:27.594Z,41.07
2023-03-25T18:51:56.832Z,40.85
2023-03-25T18:54:24.380Z,40.58
2023-03-25T18:56:52.056Z,40.53
2023-03-25T18:59:20.651Z,41.09
2023-03-25T19:01:48.243Z,40.84
2023-03-25T19:04:16.343Z,40.95
2023-03-25T19:06:44.208Z,40.76
2023-03-25T19:09:22.637Z,40.97
2023-03-25T19:11:50.230Z,40.66
2023-03-25T19:14:17.739Z,40.90
2023-03-25T19:16:57.345Z,41.02
2023-03-25T19:19:29.121Z,40.80
2023-03-25T19:21:56.655Z,40.91
2023-03-25T19:24:24.164Z,41.35
2023-03-25T19:26:51.735Z,41.85
2023-03-25T19:29:19.228Z,42.50
2023-03-25T19:31:46.848Z,42.79
2023-03-25T19:34:14.392Z,43.55
2023-03-25T19:36:41.891Z,43.61
2023-03-25T19:39:10.649Z,43.84
2023-03-25T19:41:42.610Z,43.90
2023-03-25T19:44:10.277Z,43.89
2023-03-25T19:46:37.982Z,43.93
2023-03-25T19:49:05.831Z,43.99
2023-03-25T19:51:33.320Z,44.21
2023-03-25T19:54:00.856Z,43.92
2023-03-25T19:56:28.384Z,44.31
2023-03-25T19:58:55.899Z,44.34
2023-03-25T20:01:24.242Z,44.39
2023-03-25T20:03:52.456Z,44.02
2023-03-25T20:06:20.687Z,44.31
2023-03-25T20:08:48.237Z,44.26
2023-03-25T20:11:15.823Z,44.24
2023-03-25T20:13:43.450Z,44.28
2023-03-25T20:16:11.697Z,44.28
2023-03-25T20:18:41.182Z,44.53
2023-03-25T20:21:09.964Z,44.44
2023-03-25T20:23:37.571Z,44.44
2023-03-25T20:26:05.880Z,44.47
2023-03-25T20:28:33.424Z,44.31
2023-03-25T20:31:01.025Z,44.38
2023-03-25T20:33:28.597Z,44.38
2023-03-25T20:35:56.274Z,44.55
2023-03-25T20:38:23.797Z,44.53
2023-03-25T20:40:54.504Z,44.42
2023-03-25T20:43:22.048Z,44.70
2023-03-25T20:45:54.195Z,44.57
2023-03-25T20:48:22.876Z,44.53
2023-03-25T20:51:04.437Z,44.57
2023-03-25T20:53:33.045Z,44.38
2023-03-25T20:56:01.185Z,44.43
2023-03-25T20:58:30.016Z,44.70
2023-03-25T21:00:59.018Z,44.62
2023-03-25T21:03:27.876Z,44.59
2023-03-25T21:06:10.348Z,44.62
2023-03-25T21:08:38.542Z,44.69
2023-03-25T21:11:07.089Z,44.53
2023-03-25T21:13:34.944Z,44.99
2023-03-25T21:16:02.788Z,45.08
2023-03-25T21:18:30.712Z,44.93
2023-03-25T21:21:01.347Z,45.06
2023-03-25T21:23:31.728Z,45.09
2023-03-25T21:26:04.288Z,45.08
2023-03-25T21:28:32.133Z,44.82
2023-03-25T21:31:08.907Z,44.95
2023-03-25T21:33:37.945Z,45.03
2023-03-25T21:36:08.640Z,45.67
2023-03-25T21:38:36.649Z,47.14
2023-03-25T21:41:06.945Z,47.16
2023-03-25T21:43:39.574Z,47.90
2023-03-25T21:46:07.304Z,48.75
2023-03-25T21:48:38.091Z,49.25
2023-03-25T21:51:12.124Z,49.56
2023-03-25T21:53:44.704Z,49.81
2023-03-25T21:56:20.007Z,49.86
2023-03-25T21:58:48.654Z,50.04
2023-03-25T22:01:23.043Z,50.30
2023-03-25T22:03:55.108Z,50.18
2023-03-25T22:06:27.012Z,50.72
2023-03-25T22:08:56.947Z,51.46
2023-03-25T22:11:31.159Z,52.60
2023-03-25T22:13:58.742Z,53.16
2023-03-25T22:16:26.781Z,53.77
2023-03-25T22:18:54.280Z,54.06
2023-03-25T22:21:26.002Z,55.33
2023-03-25T22:23:55.990Z,54.78
2023-03-25T22:26:25.524Z,55.61
2023-03-25T22:29:01.024Z,54.86
2023-03-25T22:31:32.568Z,55.36
2023-03-25T22:34:04.079Z,55.28
2023-03-25T22:36:33.936Z,55.18
2023-03-25T22:39:02.797Z,56.01
2023-03-25T22:41:31.147Z,55.48
2023-03-25T22:43:58.998Z,54.79
2023-03-25T22:46:26.570Z,54.59
2023-03-25T22:48:54.092Z,54.82
2023-03-25T22:51:21.995Z,54.74
2023-03-25T22:53:49.581Z,54.56
2023-03-25T22:56:17.195Z,54.81
2023-03-25T22:58:44.689Z,54.18
2023-03-25T23:01:38.682Z,54.20
2023-03-25T23:04:06.861Z,53.98
2023-03-25T23:06:36.247Z,53.79
2023-03-25T23:09:08.080Z,54.13
2023-03-25T23:11:36.825Z,53.94
2023-03-25T23:14:13.185Z,53.83
2023-03-25T23:16:41.834Z,53.47
2023-03-25T23:19:09.975Z,53.55
2023-03-25T23:21:38.380Z,53.67
2023-03-25T23:24:06.782Z,53.34
2023-03-25T23:26:40.822Z,53.30
2023-03-25T23:29:11.477Z,53.59
2023-03-25T23:31:43.266Z,53.69
2023-03-25T23:34:16.062Z,54.19
2023-03-25T23:36:45.265Z,54.04
2023-03-25T23:39:17.019Z,54.28
2023-03-25T23:41:44.591Z,54.08
2023-03-25T23:44:13.053Z,54.06
2023-03-25T23:46:41.896Z,54.04
2023-03-25T23:49:10.751Z,54.10
2023-03-25T23:51:41.468Z,53.67
2023-03-25T23:54:12.897Z,53.65
2023-03-25T23:56:42.121Z,53.59
2023-03-25T23:59:11.598Z,54.00
